This is the latest recevied weather packets stored in our database for station/object WA1TYB-13. If no packets are shown the sender has not sent any weather packets the latest 10 day(s).
| Time | Temp. | Humidity | Pressure | Rain* | Wind** | Luminosity | Snow |
|---|---|---|---|---|---|---|---|
| 1777632574 | 0.56° C | 74% | 1023.1 hPa | 0 mm | - | 0 W/m² | - |
| 1777632272 | 1.11° C | 73% | 1023.1 hPa | 0 mm | - | 0 W/m² | - |
| 1777631968 | 1.11° C | 73% | 1022.8 hPa | 0 mm | - | 0 W/m² | - |
| 1777631667 | 1.11° C | 73% | 1022.8 hPa | 0 mm | - | 0 W/m² | - |
| 1777631364 | 1.67° C | 72% | 1023 hPa | 0 mm | - | 0 W/m² | - |
| 1777631061 | 1.11° C | 74% | 1023.1 hPa | 0 mm | - | 0 W/m² | - |
| 1777630757 | 0.56° C | 74% | 1022.7 hPa | 0 mm | - | 0 W/m² | - |
| 1777630454 | 0.56° C | 72% | 1023 hPa | 0 mm | - | 0 W/m² | - |
| 1777630151 | 0.56° C | 71% | 1022.8 hPa | 0 mm | - | 0 W/m² | - |
| 1777629849 | 1.11° C | 70% | 1022.8 hPa | 0 mm | - | 0 W/m² | - |
| 1777629545 | 1.67° C | 68% | 1022.7 hPa | 0 mm | - | 0 W/m² | - |
| 1777629242 | 1.67° C | 67% | 1022.8 hPa | 0 mm | - | 0 W/m² | - |
| 1777628938 | 2.78° C | 67% | 1022.7 hPa | 0 mm | - | 0 W/m² | - |
| 1777628634 | 2.78° C | 65% | 1022.6 hPa | 0 mm | - | 0 W/m² | - |
| 1777628330 | 2.22° C | 67% | 1022.5 hPa | 0 mm | - | 0 W/m² | - |
| 1777628027 | 2.22° C | 68% | 1022.6 hPa | 0 mm | - | 0 W/m² | - |
| 1777627726 | 2.22° C | 68% | 1022.6 hPa | 0 mm | - | 0 W/m² | - |
| 1777627425 | 1.67° C | 68% | 1022.6 hPa | 0 mm | - | 0 W/m² | - |
| 1777627122 | 2.22° C | 65% | 1022.5 hPa | 0 mm | - | 0 W/m² | - |
| 1777626819 | 3.33° C | 62% | 1022.6 hPa | 0 mm | - | 0 W/m² | - |
| 1777626514 | 5.56° C | 54% | 1022.5 hPa | 0 mm | - | 0 W/m² | - |
| 1777626209 | 5° C | 55% | 1022.3 hPa | 0 mm | - | 0 W/m² | - |
| 1777625907 | 5° C | 56% | 1022.4 hPa | 0 mm | - | 0 W/m² | - |
| 1777625604 | 5° C | 56% | 1022.5 hPa | 0 mm | - | 0 W/m² | - |
| 1777625299 | 3.89° C | 60% | 1022.4 hPa | 0 mm | - | 0 W/m² | - |
* Rain latest hour (hover to see other rain measurements)
** Current wind speed in m/s (hover to see current wind gust speed)